sensor_id;sensor_type;location;lat;lon;timestamp;P1;durP1;ratioP1;P2;durP2;ratioP2
17494;SDS011;8864;51.970;4.614;2023-04-25T00:02:00;2.42;;;1.00;;
17494;SDS011;8864;51.970;4.614;2023-04-25T00:04:28;2.58;;;1.00;;
17494;SDS011;8864;51.970;4.614;2023-04-25T00:06:58;4.13;;;0.90;;
17494;SDS011;8864;51.970;4.614;2023-04-25T00:09:26;4.57;;;1.00;;
17494;SDS011;8864;51.970;4.614;2023-04-25T00:11:53;2.42;;;1.00;;
17494;SDS011;8864;51.970;4.614;2023-04-25T00:14:20;3.47;;;1.23;;
17494;SDS011;8864;51.970;4.614;2023-04-25T00:16:47;4.38;;;1.27;;
17494;SDS011;8864;51.970;4.614;2023-04-25T00:19:18;3.90;;;1.08;;
17494;SDS011;8864;51.970;4.614;2023-04-25T00:21:45;4.03;;;1.20;;
17494;SDS011;8864;51.970;4.614;2023-04-25T00:24:12;5.13;;;1.23;;
17494;SDS011;8864;51.970;4.614;2023-04-25T00:26:39;4.80;;;1.50;;
17494;SDS011;8864;51.970;4.614;2023-04-25T00:29:05;1.65;;;0.70;;
17494;SDS011;8864;51.970;4.614;2023-04-25T00:31:32;2.97;;;1.20;;
17494;SDS011;8864;51.970;4.614;2023-04-25T00:33:59;4.10;;;1.10;;
17494;SDS011;8864;51.970;4.614;2023-04-25T00:36:28;2.67;;;1.25;;
17494;SDS011;8864;51.970;4.614;2023-04-25T00:38:55;5.05;;;1.17;;
17494;SDS011;8864;51.970;4.614;2023-04-25T00:41:22;4.00;;;1.05;;
17494;SDS011;8864;51.970;4.614;2023-04-25T00:43:51;2.95;;;1.00;;
17494;SDS011;8864;51.970;4.614;2023-04-25T00:46:19;4.00;;;1.13;;
17494;SDS011;8864;51.970;4.614;2023-04-25T00:48:46;3.72;;;1.17;;
17494;SDS011;8864;51.970;4.614;2023-04-25T00:51:14;3.15;;;0.95;;
17494;SDS011;8864;51.970;4.614;2023-04-25T00:53:44;3.40;;;1.10;;
17494;SDS011;8864;51.970;4.614;2023-04-25T00:56:11;6.00;;;1.20;;
17494;SDS011;8864;51.970;4.614;2023-04-25T00:58:39;3.40;;;0.93;;
17494;SDS011;8864;51.970;4.614;2023-04-25T01:01:07;3.97;;;1.15;;
17494;SDS011;8864;51.970;4.614;2023-04-25T01:03:35;3.10;;;1.30;;
17494;SDS011;8864;51.970;4.614;2023-04-25T01:06:05;4.60;;;1.23;;
17494;SDS011;8864;51.970;4.614;2023-04-25T01:08:33;5.10;;;1.48;;
17494;SDS011;8864;51.970;4.614;2023-04-25T01:11:02;1.90;;;0.98;;
17494;SDS011;8864;51.970;4.614;2023-04-25T01:13:29;3.20;;;0.90;;
17494;SDS011;8864;51.970;4.614;2023-04-25T01:15:57;2.58;;;1.00;;
17494;SDS011;8864;51.970;4.614;2023-04-25T01:18:24;1.65;;;0.80;;
17494;SDS011;8864;51.970;4.614;2023-04-25T01:20:51;4.75;;;0.80;;
17494;SDS011;8864;51.970;4.614;2023-04-25T01:23:20;2.80;;;1.00;;
17494;SDS011;8864;51.970;4.614;2023-04-25T01:25:51;4.20;;;1.17;;
17494;SDS011;8864;51.970;4.614;2023-04-25T01:28:18;3.83;;;1.20;;
17494;SDS011;8864;51.970;4.614;2023-04-25T01:30:47;3.22;;;0.98;;
17494;SDS011;8864;51.970;4.614;2023-04-25T01:33:14;2.45;;;1.05;;
17494;SDS011;8864;51.970;4.614;2023-04-25T01:35:42;2.85;;;1.15;;
17494;SDS011;8864;51.970;4.614;2023-04-25T01:38:09;1.75;;;0.80;;
17494;SDS011;8864;51.970;4.614;2023-04-25T01:40:40;3.78;;;1.20;;
17494;SDS011;8864;51.970;4.614;2023-04-25T01:43:07;4.57;;;1.13;;
17494;SDS011;8864;51.970;4.614;2023-04-25T01:45:36;2.40;;;1.17;;
17494;SDS011;8864;51.970;4.614;2023-04-25T01:48:05;2.25;;;0.90;;
17494;SDS011;8864;51.970;4.614;2023-04-25T01:50:32;2.85;;;1.10;;
17494;SDS011;8864;51.970;4.614;2023-04-25T01:52:59;3.97;;;1.08;;
17494;SDS011;8864;51.970;4.614;2023-04-25T01:55:26;5.35;;;1.33;;
17494;SDS011;8864;51.970;4.614;2023-04-25T01:57:55;2.38;;;1.10;;
17494;SDS011;8864;51.970;4.614;2023-04-25T02:00:22;2.90;;;1.13;;
17494;SDS011;8864;51.970;4.614;2023-04-25T02:02:49;5.88;;;1.10;;
17494;SDS011;8864;51.970;4.614;2023-04-25T02:05:18;3.28;;;1.20;;
17494;SDS011;8864;51.970;4.614;2023-04-25T02:07:45;3.15;;;1.15;;
17494;SDS011;8864;51.970;4.614;2023-04-25T02:10:14;3.53;;;1.13;;
17494;SDS011;8864;51.970;4.614;2023-04-25T02:12:41;3.78;;;1.13;;
17494;SDS011;8864;51.970;4.614;2023-04-25T02:15:09;3.25;;;1.00;;
17494;SDS011;8864;51.970;4.614;2023-04-25T02:17:36;2.83;;;0.90;;
17494;SDS011;8864;51.970;4.614;2023-04-25T02:20:04;4.45;;;0.95;;
17494;SDS011;8864;51.970;4.614;2023-04-25T02:22:32;2.35;;;1.00;;
17494;SDS011;8864;51.970;4.614;2023-04-25T02:25:00;3.00;;;1.08;;
17494;SDS011;8864;51.970;4.614;2023-04-25T02:27:29;4.47;;;0.90;;
17494;SDS011;8864;51.970;4.614;2023-04-25T02:29:56;1.83;;;0.90;;
17494;SDS011;8864;51.970;4.614;2023-04-25T02:32:24;3.20;;;1.10;;
17494;SDS011;8864;51.970;4.614;2023-04-25T02:34:51;2.28;;;1.05;;
17494;SDS011;8864;51.970;4.614;2023-04-25T02:37:18;1.52;;;0.80;;
17494;SDS011;8864;51.970;4.614;2023-04-25T02:39:45;1.83;;;0.80;;
17494;SDS011;8864;51.970;4.614;2023-04-25T02:42:12;1.73;;;0.85;;
17494;SDS011;8864;51.970;4.614;2023-04-25T02:44:39;2.35;;;1.00;;
17494;SDS011;8864;51.970;4.614;2023-04-25T02:47:06;3.50;;;0.80;;
17494;SDS011;8864;51.970;4.614;2023-04-25T02:49:34;3.20;;;0.90;;
17494;SDS011;8864;51.970;4.614;2023-04-25T02:52:01;1.48;;;0.85;;
17494;SDS011;8864;51.970;4.614;2023-04-25T02:54:28;4.30;;;1.20;;
17494;SDS011;8864;51.970;4.614;2023-04-25T02:56:56;4.43;;;1.08;;
17494;SDS011;8864;51.970;4.614;2023-04-25T02:59:23;2.33;;;1.08;;
17494;SDS011;8864;51.970;4.614;2023-04-25T03:01:50;3.47;;;1.00;;
17494;SDS011;8864;51.970;4.614;2023-04-25T03:04:16;3.90;;;1.00;;
17494;SDS011;8864;51.970;4.614;2023-04-25T03:06:45;2.60;;;1.00;;
17494;SDS011;8864;51.970;4.614;2023-04-25T03:09:12;4.28;;;1.08;;
17494;SDS011;8864;51.970;4.614;2023-04-25T03:11:39;3.38;;;1.17;;
17494;SDS011;8864;51.970;4.614;2023-04-25T03:14:06;6.43;;;0.85;;
17494;SDS011;8864;51.970;4.614;2023-04-25T03:16:32;3.28;;;0.98;;
17494;SDS011;8864;51.970;4.614;2023-04-25T03:18:59;3.05;;;0.95;;
17494;SDS011;8864;51.970;4.614;2023-04-25T03:21:26;2.30;;;0.80;;
17494;SDS011;8864;51.970;4.614;2023-04-25T03:23:55;2.63;;;0.95;;
17494;SDS011;8864;51.970;4.614;2023-04-25T03:26:21;2.38;;;1.00;;
17494;SDS011;8864;51.970;4.614;2023-04-25T03:28:48;3.80;;;1.00;;
17494;SDS011;8864;51.970;4.614;2023-04-25T03:31:15;1.63;;;0.90;;
17494;SDS011;8864;51.970;4.614;2023-04-25T03:33:42;1.85;;;0.88;;
17494;SDS011;8864;51.970;4.614;2023-04-25T03:36:09;1.15;;;0.70;;
17494;SDS011;8864;51.970;4.614;2023-04-25T03:38:36;1.48;;;0.55;;
17494;SDS011;8864;51.970;4.614;2023-04-25T03:41:05;3.25;;;1.02;;
17494;SDS011;8864;51.970;4.614;2023-04-25T03:43:31;2.97;;;0.85;;
17494;SDS011;8864;51.970;4.614;2023-04-25T03:45:58;3.45;;;0.90;;
17494;SDS011;8864;51.970;4.614;2023-04-25T03:48:26;1.60;;;0.90;;
17494;SDS011;8864;51.970;4.614;2023-04-25T03:50:53;2.88;;;0.77;;
17494;SDS011;8864;51.970;4.614;2023-04-25T03:53:20;2.97;;;0.90;;
17494;SDS011;8864;51.970;4.614;2023-04-25T03:55:47;1.98;;;0.88;;
17494;SDS011;8864;51.970;4.614;2023-04-25T03:58:16;2.33;;;0.80;;
17494;SDS011;8864;51.970;4.614;2023-04-25T04:00:42;3.03;;;0.90;;
17494;SDS011;8864;51.970;4.614;2023-04-25T04:03:09;3.72;;;1.13;;
17494;SDS011;8864;51.970;4.614;2023-04-25T04:05:37;2.90;;;0.75;;
17494;SDS011;8864;51.970;4.614;2023-04-25T04:08:05;2.80;;;0.75;;
17494;SDS011;8864;51.970;4.614;2023-04-25T04:10:32;3.88;;;1.10;;
17494;SDS011;8864;51.970;4.614;2023-04-25T04:12:59;2.17;;;0.75;;
17494;SDS011;8864;51.970;4.614;2023-04-25T04:15:29;2.22;;;0.88;;
17494;SDS011;8864;51.970;4.614;2023-04-25T04:17:57;4.75;;;0.90;;
17494;SDS011;8864;51.970;4.614;2023-04-25T04:20:27;2.35;;;0.77;;
17494;SDS011;8864;51.970;4.614;2023-04-25T04:22:54;2.70;;;0.85;;
17494;SDS011;8864;51.970;4.614;2023-04-25T04:25:21;2.30;;;0.98;;
17494;SDS011;8864;51.970;4.614;2023-04-25T04:27:49;2.80;;;1.00;;
17494;SDS011;8864;51.970;4.614;2023-04-25T04:30:19;4.05;;;0.90;;
17494;SDS011;8864;51.970;4.614;2023-04-25T04:32:50;3.33;;;0.80;;
17494;SDS011;8864;51.970;4.614;2023-04-25T04:35:17;4.15;;;1.10;;
17494;SDS011;8864;51.970;4.614;2023-04-25T04:37:44;2.95;;;0.80;;
17494;SDS011;8864;51.970;4.614;2023-04-25T04:40:13;1.70;;;0.93;;
17494;SDS011;8864;51.970;4.614;2023-04-25T04:42:41;3.03;;;0.90;;
17494;SDS011;8864;51.970;4.614;2023-04-25T04:45:08;2.45;;;0.70;;
17494;SDS011;8864;51.970;4.614;2023-04-25T04:47:36;1.38;;;0.85;;
17494;SDS011;8864;51.970;4.614;2023-04-25T04:50:06;1.98;;;0.70;;
17494;SDS011;8864;51.970;4.614;2023-04-25T04:52:34;2.50;;;0.80;;
17494;SDS011;8864;51.970;4.614;2023-04-25T04:55:01;1.63;;;0.80;;
17494;SDS011;8864;51.970;4.614;2023-04-25T04:57:29;1.85;;;0.80;;
17494;SDS011;8864;51.970;4.614;2023-04-25T04:59:58;3.30;;;0.75;;
17494;SDS011;8864;51.970;4.614;2023-04-25T05:02:25;3.88;;;1.20;;
17494;SDS011;8864;51.970;4.614;2023-04-25T05:04:52;2.05;;;0.98;;
17494;SDS011;8864;51.970;4.614;2023-04-25T05:07:21;2.78;;;1.00;;
17494;SDS011;8864;51.970;4.614;2023-04-25T05:09:48;2.67;;;0.90;;
17494;SDS011;8864;51.970;4.614;2023-04-25T05:12:15;2.47;;;0.80;;
17494;SDS011;8864;51.970;4.614;2023-04-25T05:14:41;1.35;;;0.70;;
17494;SDS011;8864;51.970;4.614;2023-04-25T05:17:08;2.15;;;0.70;;
17494;SDS011;8864;51.970;4.614;2023-04-25T05:19:35;1.95;;;0.80;;
17494;SDS011;8864;51.970;4.614;2023-04-25T05:22:03;1.63;;;0.93;;
17494;SDS011;8864;51.970;4.614;2023-04-25T05:24:31;1.77;;;0.68;;
17494;SDS011;8864;51.970;4.614;2023-04-25T05:26:58;1.20;;;0.70;;
17494;SDS011;8864;51.970;4.614;2023-04-25T05:29:25;3.08;;;0.75;;
17494;SDS011;8864;51.970;4.614;2023-04-25T05:31:51;2.70;;;0.70;;
17494;SDS011;8864;51.970;4.614;2023-04-25T05:34:18;4.97;;;0.82;;
17494;SDS011;8864;51.970;4.614;2023-04-25T05:36:45;3.42;;;0.82;;
17494;SDS011;8864;51.970;4.614;2023-04-25T05:39:14;1.42;;;0.82;;
17494;SDS011;8864;51.970;4.614;2023-04-25T05:41:42;3.35;;;0.90;;
17494;SDS011;8864;51.970;4.614;2023-04-25T05:44:09;2.25;;;0.90;;
17494;SDS011;8864;51.970;4.614;2023-04-25T05:46:36;3.70;;;0.90;;
17494;SDS011;8864;51.970;4.614;2023-04-25T05:49:03;2.78;;;0.90;;
17494;SDS011;8864;51.970;4.614;2023-04-25T05:51:30;1.58;;;0.88;;
17494;SDS011;8864;51.970;4.614;2023-04-25T05:53:57;3.17;;;0.77;;
17494;SDS011;8864;51.970;4.614;2023-04-25T05:56:24;2.97;;;0.90;;
17494;SDS011;8864;51.970;4.614;2023-04-25T05:58:53;4.38;;;1.13;;
17494;SDS011;8864;51.970;4.614;2023-04-25T06:01:20;3.60;;;0.93;;
17494;SDS011;8864;51.970;4.614;2023-04-25T06:03:47;3.10;;;0.70;;
17494;SDS011;8864;51.970;4.614;2023-04-25T06:06:16;1.70;;;0.60;;
17494;SDS011;8864;51.970;4.614;2023-04-25T06:08:43;2.65;;;1.00;;
17494;SDS011;8864;51.970;4.614;2023-04-25T06:11:10;3.35;;;1.00;;
17494;SDS011;8864;51.970;4.614;2023-04-25T06:13:37;1.85;;;0.70;;
17494;SDS011;8864;51.970;4.614;2023-04-25T06:16:06;3.50;;;0.98;;
17494;SDS011;8864;51.970;4.614;2023-04-25T06:18:33;1.27;;;0.60;;
17494;SDS011;8864;51.970;4.614;2023-04-25T06:21:00;1.95;;;0.80;;
17494;SDS011;8864;51.970;4.614;2023-04-25T06:23:27;1.02;;;0.60;;
17494;SDS011;8864;51.970;4.614;2023-04-25T06:25:54;4.43;;;0.80;;
17494;SDS011;8864;51.970;4.614;2023-04-25T06:28:21;1.90;;;0.70;;
17494;SDS011;8864;51.970;4.614;2023-04-25T06:30:49;2.72;;;0.63;;
17494;SDS011;8864;51.970;4.614;2023-04-25T06:33:17;2.38;;;0.80;;
17494;SDS011;8864;51.970;4.614;2023-04-25T06:35:45;1.10;;;0.60;;
17494;SDS011;8864;51.970;4.614;2023-04-25T06:38:12;1.65;;;0.73;;
17494;SDS011;8864;51.970;4.614;2023-04-25T06:40:38;2.60;;;0.63;;
17494;SDS011;8864;51.970;4.614;2023-04-25T06:43:05;0.43;;;0.40;;
17494;SDS011;8864;51.970;4.614;2023-04-25T06:45:32;1.38;;;0.68;;
17494;SDS011;8864;51.970;4.614;2023-04-25T06:47:59;1.25;;;0.65;;
17494;SDS011;8864;51.970;4.614;2023-04-25T06:50:27;3.13;;;0.60;;
17494;SDS011;8864;51.970;4.614;2023-04-25T06:52:54;1.38;;;0.60;;
17494;SDS011;8864;51.970;4.614;2023-04-25T06:55:21;1.83;;;0.70;;
17494;SDS011;8864;51.970;4.614;2023-04-25T06:57:48;1.50;;;0.70;;
17494;SDS011;8864;51.970;4.614;2023-04-25T07:00:15;2.30;;;0.82;;
17494;SDS011;8864;51.970;4.614;2023-04-25T07:02:43;1.38;;;0.60;;
17494;SDS011;8864;51.970;4.614;2023-04-25T07:05:10;1.10;;;0.60;;
17494;SDS011;8864;51.970;4.614;2023-04-25T07:07:38;1.10;;;0.75;;
17494;SDS011;8864;51.970;4.614;2023-04-25T07:10:05;2.10;;;0.85;;
17494;SDS011;8864;51.970;4.614;2023-04-25T07:12:32;2.53;;;0.80;;
17494;SDS011;8864;51.970;4.614;2023-04-25T07:14:59;1.48;;;0.70;;
17494;SDS011;8864;51.970;4.614;2023-04-25T07:17:31;2.00;;;0.68;;
17494;SDS011;8864;51.970;4.614;2023-04-25T07:19:58;1.38;;;0.60;;
17494;SDS011;8864;51.970;4.614;2023-04-25T07:22:25;1.88;;;0.70;;
17494;SDS011;8864;51.970;4.614;2023-04-25T07:24:54;1.45;;;0.60;;
17494;SDS011;8864;51.970;4.614;2023-04-25T07:27:21;1.65;;;0.40;;
17494;SDS011;8864;51.970;4.614;2023-04-25T07:29:47;2.55;;;0.70;;
17494;SDS011;8864;51.970;4.614;2023-04-25T07:32:14;1.50;;;0.80;;
17494;SDS011;8864;51.970;4.614;2023-04-25T07:34:41;1.40;;;0.52;;
17494;SDS011;8864;51.970;4.614;2023-04-25T07:37:08;1.35;;;0.60;;
17494;SDS011;8864;51.970;4.614;2023-04-25T07:39:35;2.70;;;0.80;;
17494;SDS011;8864;51.970;4.614;2023-04-25T07:42:04;3.00;;;0.73;;
17494;SDS011;8864;51.970;4.614;2023-04-25T07:44:33;1.65;;;0.80;;
17494;SDS011;8864;51.970;4.614;2023-04-25T07:47:03;1.98;;;0.60;;
17494;SDS011;8864;51.970;4.614;2023-04-25T07:49:32;1.92;;;0.77;;
17494;SDS011;8864;51.970;4.614;2023-04-25T07:52:01;1.13;;;0.50;;
17494;SDS011;8864;51.970;4.614;2023-04-25T07:54:28;2.30;;;0.40;;
17494;SDS011;8864;51.970;4.614;2023-04-25T07:56:55;1.65;;;0.50;;
17494;SDS011;8864;51.970;4.614;2023-04-25T07:59:23;1.25;;;0.60;;
17494;SDS011;8864;51.970;4.614;2023-04-25T08:01:50;2.03;;;0.65;;
17494;SDS011;8864;51.970;4.614;2023-04-25T08:04:17;1.58;;;0.60;;
17494;SDS011;8864;51.970;4.614;2023-04-25T08:06:44;2.58;;;0.70;;
17494;SDS011;8864;51.970;4.614;2023-04-25T08:09:11;1.35;;;0.60;;
17494;SDS011;8864;51.970;4.614;2023-04-25T08:11:38;2.15;;;0.68;;
17494;SDS011;8864;51.970;4.614;2023-04-25T08:14:05;1.15;;;0.63;;
17494;SDS011;8864;51.970;4.614;2023-04-25T08:16:33;1.20;;;0.52;;
17494;SDS011;8864;51.970;4.614;2023-04-25T08:19:00;4.45;;;0.80;;
17494;SDS011;8864;51.970;4.614;2023-04-25T08:21:27;3.28;;;0.90;;
17494;SDS011;8864;51.970;4.614;2023-04-25T08:23:54;2.63;;;0.77;;
17494;SDS011;8864;51.970;4.614;2023-04-25T08:26:23;1.40;;;0.45;;
17494;SDS011;8864;51.970;4.614;2023-04-25T08:28:49;1.65;;;0.60;;
17494;SDS011;8864;51.970;4.614;2023-04-25T08:31:17;2.00;;;0.80;;
17494;SDS011;8864;51.970;4.614;2023-04-25T08:33:45;1.92;;;0.50;;
17494;SDS011;8864;51.970;4.614;2023-04-25T08:36:14;2.38;;;0.52;;
17494;SDS011;8864;51.970;4.614;2023-04-25T08:38:42;1.00;;;0.65;;
17494;SDS011;8864;51.970;4.614;2023-04-25T08:41:09;1.20;;;0.50;;
17494;SDS011;8864;51.970;4.614;2023-04-25T08:43:39;1.63;;;0.85;;
17494;SDS011;8864;51.970;4.614;2023-04-25T08:46:08;0.63;;;0.40;;
17494;SDS011;8864;51.970;4.614;2023-04-25T08:48:35;1.17;;;0.40;;
17494;SDS011;8864;51.970;4.614;2023-04-25T08:51:04;2.88;;;0.65;;
17494;SDS011;8864;51.970;4.614;2023-04-25T08:53:34;1.17;;;0.52;;
17494;SDS011;8864;51.970;4.614;2023-04-25T08:56:01;2.53;;;0.70;;
17494;SDS011;8864;51.970;4.614;2023-04-25T08:58:28;0.80;;;0.47;;
17494;SDS011;8864;51.970;4.614;2023-04-25T09:00:55;2.38;;;0.82;;
17494;SDS011;8864;51.970;4.614;2023-04-25T09:03:22;1.73;;;0.50;;
17494;SDS011;8864;51.970;4.614;2023-04-25T09:05:49;1.90;;;0.68;;
17494;SDS011;8864;51.970;4.614;2023-04-25T09:08:19;0.55;;;0.45;;
17494;SDS011;8864;51.970;4.614;2023-04-25T09:10:46;2.45;;;0.80;;
17494;SDS011;8864;51.970;4.614;2023-04-25T09:13:14;1.42;;;0.60;;
17494;SDS011;8864;51.970;4.614;2023-04-25T09:15:47;1.65;;;0.57;;
17494;SDS011;8864;51.970;4.614;2023-04-25T09:18:21;1.35;;;0.50;;
17494;SDS011;8864;51.970;4.614;2023-04-25T09:20:51;1.40;;;0.70;;
17494;SDS011;8864;51.970;4.614;2023-04-25T09:23:20;1.15;;;0.77;;
17494;SDS011;8864;51.970;4.614;2023-04-25T09:25:48;2.05;;;0.60;;
17494;SDS011;8864;51.970;4.614;2023-04-25T09:28:16;2.20;;;0.70;;
17494;SDS011;8864;51.970;4.614;2023-04-25T09:30:48;1.10;;;0.57;;
17494;SDS011;8864;51.970;4.614;2023-04-25T09:33:15;0.75;;;0.47;;
17494;SDS011;8864;51.970;4.614;2023-04-25T09:35:43;1.83;;;0.65;;
17494;SDS011;8864;51.970;4.614;2023-04-25T09:38:11;2.22;;;0.50;;
17494;SDS011;8864;51.970;4.614;2023-04-25T09:40:41;2.72;;;0.60;;
17494;SDS011;8864;51.970;4.614;2023-04-25T09:43:09;2.35;;;0.60;;
17494;SDS011;8864;51.970;4.614;2023-04-25T09:45:43;2.45;;;0.70;;
17494;SDS011;8864;51.970;4.614;2023-04-25T09:48:13;1.35;;;0.50;;
17494;SDS011;8864;51.970;4.614;2023-04-25T09:50:44;1.45;;;0.70;;
17494;SDS011;8864;51.970;4.614;2023-04-25T09:53:11;1.98;;;0.70;;
17494;SDS011;8864;51.970;4.614;2023-04-25T09:55:38;2.67;;;0.50;;
17494;SDS011;8864;51.970;4.614;2023-04-25T09:58:08;2.50;;;0.60;;
17494;SDS011;8864;51.970;4.614;2023-04-25T10:00:37;2.30;;;0.60;;
17494;SDS011;8864;51.970;4.614;2023-04-25T10:03:04;1.45;;;0.60;;
17494;SDS011;8864;51.970;4.614;2023-04-25T10:05:32;1.55;;;0.70;;
17494;SDS011;8864;51.970;4.614;2023-04-25T10:08:02;2.88;;;0.90;;
17494;SDS011;8864;51.970;4.614;2023-04-25T10:10:30;1.70;;;0.70;;
17494;SDS011;8864;51.970;4.614;2023-04-25T10:13:03;2.92;;;0.80;;
17494;SDS011;8864;51.970;4.614;2023-04-25T10:15:32;3.38;;;0.75;;
17494;SDS011;8864;51.970;4.614;2023-04-25T10:18:01;2.25;;;0.65;;
17494;SDS011;8864;51.970;4.614;2023-04-25T10:20:29;1.27;;;0.60;;
17494;SDS011;8864;51.970;4.614;2023-04-25T10:22:58;2.28;;;0.77;;
17494;SDS011;8864;51.970;4.614;2023-04-25T10:25:33;1.05;;;0.52;;
17494;SDS011;8864;51.970;4.614;2023-04-25T10:28:00;2.58;;;0.68;;
17494;SDS011;8864;51.970;4.614;2023-04-25T10:30:29;2.33;;;0.80;;
17494;SDS011;8864;51.970;4.614;2023-04-25T10:32:56;2.75;;;0.68;;
17494;SDS011;8864;51.970;4.614;2023-04-25T10:35:25;2.38;;;0.77;;
17494;SDS011;8864;51.970;4.614;2023-04-25T10:37:56;3.60;;;0.82;;
17494;SDS011;8864;51.970;4.614;2023-04-25T10:40:24;1.27;;;0.70;;
17494;SDS011;8864;51.970;4.614;2023-04-25T10:42:51;2.08;;;0.68;;
17494;SDS011;8864;51.970;4.614;2023-04-25T10:45:20;2.47;;;0.80;;
17494;SDS011;8864;51.970;4.614;2023-04-25T10:47:48;3.72;;;0.80;;
17494;SDS011;8864;51.970;4.614;2023-04-25T10:50:15;3.80;;;0.82;;
17494;SDS011;8864;51.970;4.614;2023-04-25T10:52:42;1.65;;;0.57;;
17494;SDS011;8864;51.970;4.614;2023-04-25T10:55:10;4.45;;;0.68;;
17494;SDS011;8864;51.970;4.614;2023-04-25T10:57:38;2.55;;;0.60;;
17494;SDS011;8864;51.970;4.614;2023-04-25T11:00:10;2.33;;;0.60;;
17494;SDS011;8864;51.970;4.614;2023-04-25T11:02:45;1.55;;;0.70;;
17494;SDS011;8864;51.970;4.614;2023-04-25T11:05:20;2.38;;;0.68;;
17494;SDS011;8864;51.970;4.614;2023-04-25T11:07:49;1.55;;;0.52;;
17494;SDS011;8864;51.970;4.614;2023-04-25T11:10:18;2.08;;;0.40;;
17494;SDS011;8864;51.970;4.614;2023-04-25T11:12:46;2.58;;;0.77;;
17494;SDS011;8864;51.970;4.614;2023-04-25T11:15:13;0.55;;;0.55;;
17494;SDS011;8864;51.970;4.614;2023-04-25T11:17:40;1.15;;;0.63;;
17494;SDS011;8864;51.970;4.614;2023-04-25T11:20:12;2.25;;;0.60;;
17494;SDS011;8864;51.970;4.614;2023-04-25T11:22:40;1.63;;;0.50;;
17494;SDS011;8864;51.970;4.614;2023-04-25T11:25:09;1.33;;;0.70;;
17494;SDS011;8864;51.970;4.614;2023-04-25T11:27:48;1.25;;;0.60;;
17494;SDS011;8864;51.970;4.614;2023-04-25T11:30:16;1.90;;;0.60;;
17494;SDS011;8864;51.970;4.614;2023-04-25T11:32:44;1.67;;;0.70;;
17494;SDS011;8864;51.970;4.614;2023-04-25T11:35:13;1.25;;;0.65;;
17494;SDS011;8864;51.970;4.614;2023-04-25T11:37:40;2.92;;;0.70;;
17494;SDS011;8864;51.970;4.614;2023-04-25T11:40:08;2.40;;;0.65;;
17494;SDS011;8864;51.970;4.614;2023-04-25T11:42:36;0.80;;;0.50;;
17494;SDS011;8864;51.970;4.614;2023-04-25T11:45:04;2.38;;;0.50;;
17494;SDS011;8864;51.970;4.614;2023-04-25T11:47:33;0.93;;;0.50;;
17494;SDS011;8864;51.970;4.614;2023-04-25T11:50:00;2.22;;;0.60;;
17494;SDS011;8864;51.970;4.614;2023-04-25T11:52:39;2.00;;;0.60;;
17494;SDS011;8864;51.970;4.614;2023-04-25T11:55:08;1.88;;;0.57;;
17494;SDS011;8864;51.970;4.614;2023-04-25T11:57:36;1.48;;;0.60;;
17494;SDS011;8864;51.970;4.614;2023-04-25T12:00:06;2.47;;;0.70;;
17494;SDS011;8864;51.970;4.614;2023-04-25T12:02:36;1.02;;;0.60;;
17494;SDS011;8864;51.970;4.614;2023-04-25T12:05:05;2.88;;;0.50;;
17494;SDS011;8864;51.970;4.614;2023-04-25T12:07:33;1.95;;;0.47;;
17494;SDS011;8864;51.970;4.614;2023-04-25T12:10:05;0.77;;;0.50;;
17494;SDS011;8864;51.970;4.614;2023-04-25T12:12:33;6.53;;;0.60;;
17494;SDS011;8864;51.970;4.614;2023-04-25T12:15:10;1.65;;;0.68;;
17494;SDS011;8864;51.970;4.614;2023-04-25T12:17:40;1.58;;;0.43;;
17494;SDS011;8864;51.970;4.614;2023-04-25T12:20:09;0.88;;;0.60;;
17494;SDS011;8864;51.970;4.614;2023-04-25T12:22:37;2.20;;;0.45;;
17494;SDS011;8864;51.970;4.614;2023-04-25T12:25:05;1.85;;;0.60;;
17494;SDS011;8864;51.970;4.614;2023-04-25T12:27:33;1.52;;;0.60;;
17494;SDS011;8864;51.970;4.614;2023-04-25T12:30:01;2.08;;;0.63;;
17494;SDS011;8864;51.970;4.614;2023-04-25T12:32:28;2.33;;;0.70;;
17494;SDS011;8864;51.970;4.614;2023-04-25T12:34:56;2.40;;;0.63;;
17494;SDS011;8864;51.970;4.614;2023-04-25T12:37:22;1.20;;;0.50;;
17494;SDS011;8864;51.970;4.614;2023-04-25T12:39:49;0.77;;;0.55;;
17494;SDS011;8864;51.970;4.614;2023-04-25T12:42:18;1.33;;;0.57;;
17494;SDS011;8864;51.970;4.614;2023-04-25T12:44:45;0.93;;;0.47;;
17494;SDS011;8864;51.970;4.614;2023-04-25T12:47:12;1.42;;;0.40;;
17494;SDS011;8864;51.970;4.614;2023-04-25T12:49:40;1.45;;;0.70;;
17494;SDS011;8864;51.970;4.614;2023-04-25T12:52:06;1.65;;;0.70;;
17494;SDS011;8864;51.970;4.614;2023-04-25T12:54:33;1.55;;;0.55;;
17494;SDS011;8864;51.970;4.614;2023-04-25T12:57:00;1.70;;;0.50;;
17494;SDS011;8864;51.970;4.614;2023-04-25T12:59:29;1.60;;;0.47;;
17494;SDS011;8864;51.970;4.614;2023-04-25T13:01:56;1.05;;;0.43;;
17494;SDS011;8864;51.970;4.614;2023-04-25T13:04:23;1.17;;;0.55;;
17494;SDS011;8864;51.970;4.614;2023-04-25T13:06:50;1.63;;;0.50;;
17494;SDS011;8864;51.970;4.614;2023-04-25T13:09:17;2.50;;;0.75;;
17494;SDS011;8864;51.970;4.614;2023-04-25T13:11:43;0.93;;;0.40;;
17494;SDS011;8864;51.970;4.614;2023-04-25T13:14:11;0.75;;;0.50;;
17494;SDS011;8864;51.970;4.614;2023-04-25T13:16:39;1.00;;;0.50;;
17494;SDS011;8864;51.970;4.614;2023-04-25T13:19:06;2.03;;;0.70;;
17494;SDS011;8864;51.970;4.614;2023-04-25T13:21:36;1.15;;;0.52;;
17494;SDS011;8864;51.970;4.614;2023-04-25T13:24:03;1.15;;;0.50;;
17494;SDS011;8864;51.970;4.614;2023-04-25T13:26:30;3.60;;;0.95;;
17494;SDS011;8864;51.970;4.614;2023-04-25T13:28:57;0.80;;;0.50;;
17494;SDS011;8864;51.970;4.614;2023-04-25T13:31:25;1.33;;;0.43;;
17494;SDS011;8864;51.970;4.614;2023-04-25T13:33:53;1.20;;;0.50;;
17494;SDS011;8864;51.970;4.614;2023-04-25T13:36:20;1.35;;;0.63;;
17494;SDS011;8864;51.970;4.614;2023-04-25T13:38:47;2.92;;;0.55;;
17494;SDS011;8864;51.970;4.614;2023-04-25T13:41:14;3.47;;;0.68;;
17494;SDS011;8864;51.970;4.614;2023-04-25T13:43:43;1.15;;;0.47;;
17494;SDS011;8864;51.970;4.614;2023-04-25T13:46:12;2.08;;;0.60;;
17494;SDS011;8864;51.970;4.614;2023-04-25T13:48:40;2.95;;;0.80;;
17494;SDS011;8864;51.970;4.614;2023-04-25T13:51:13;1.13;;;0.50;;
17494;SDS011;8864;51.970;4.614;2023-04-25T13:53:42;0.73;;;0.40;;
17494;SDS011;8864;51.970;4.614;2023-04-25T13:56:09;2.60;;;0.70;;
17494;SDS011;8864;51.970;4.614;2023-04-25T13:58:37;1.05;;;0.50;;
17494;SDS011;8864;51.970;4.614;2023-04-25T14:01:04;1.45;;;0.60;;
17494;SDS011;8864;51.970;4.614;2023-04-25T14:03:31;0.93;;;0.60;;
17494;SDS011;8864;51.970;4.614;2023-04-25T14:05:58;2.45;;;0.63;;
17494;SDS011;8864;51.970;4.614;2023-04-25T14:08:27;2.08;;;0.60;;
17494;SDS011;8864;51.970;4.614;2023-04-25T14:10:54;2.25;;;0.60;;
17494;SDS011;8864;51.970;4.614;2023-04-25T14:13:20;2.13;;;0.60;;
17494;SDS011;8864;51.970;4.614;2023-04-25T14:15:48;1.63;;;0.50;;
17494;SDS011;8864;51.970;4.614;2023-04-25T14:18:16;1.45;;;0.55;;
17494;SDS011;8864;51.970;4.614;2023-04-25T14:20:43;1.15;;;0.52;;
17494;SDS011;8864;51.970;4.614;2023-04-25T14:23:10;0.90;;;0.40;;
17494;SDS011;8864;51.970;4.614;2023-04-25T14:25:39;2.20;;;0.50;;
17494;SDS011;8864;51.970;4.614;2023-04-25T14:28:07;2.08;;;0.40;;
17494;SDS011;8864;51.970;4.614;2023-04-25T14:30:34;1.95;;;0.65;;
17494;SDS011;8864;51.970;4.614;2023-04-25T14:33:01;3.25;;;0.70;;
17494;SDS011;8864;51.970;4.614;2023-04-25T14:35:28;2.35;;;0.60;;
17494;SDS011;8864;51.970;4.614;2023-04-25T14:37:55;1.67;;;0.70;;
17494;SDS011;8864;51.970;4.614;2023-04-25T14:40:22;2.20;;;0.50;;
17494;SDS011;8864;51.970;4.614;2023-04-25T14:42:51;1.13;;;0.57;;
17494;SDS011;8864;51.970;4.614;2023-04-25T14:45:18;1.88;;;0.60;;
17494;SDS011;8864;51.970;4.614;2023-04-25T14:47:45;2.38;;;0.57;;
17494;SDS011;8864;51.970;4.614;2023-04-25T14:50:12;3.70;;;0.80;;
17494;SDS011;8864;51.970;4.614;2023-04-25T14:52:38;0.95;;;0.50;;
17494;SDS011;8864;51.970;4.614;2023-04-25T14:55:06;2.75;;;0.52;;
17494;SDS011;8864;51.970;4.614;2023-04-25T14:57:34;1.77;;;0.60;;
17494;SDS011;8864;51.970;4.614;2023-04-25T15:00:02;0.98;;;0.55;;
17494;SDS011;8864;51.970;4.614;2023-04-25T15:02:33;1.73;;;0.70;;
17494;SDS011;8864;51.970;4.614;2023-04-25T15:05:00;1.35;;;0.60;;